Time;durP1;ratioP1;P1;durP2;ratioP2;P2;SDS_P1;SDS_P2;PMS_P1;PMS_P2;Temp;Humidity;BMP_temperature;BMP_pressure;BME280_temperature;BME280_humidity;BME280_pressure;Samples;Min_cycle;Max_cycle;Signal;HPM_P1;HPM_P2
2022/04/30 04:02:03;;;;;;;17.58;9.30;;;5.10;99.90;;;;;;5223574;23;20050;-82
2022/04/30 04:04:29;;;;;;;18.52;9.05;;;5.10;99.90;;;;;;4939834;29;20498;-79
2022/04/30 04:06:56;;;;;;;17.48;8.25;;;5.20;99.90;;;;;;4939778;29;20047;-82
2022/04/30 04:09:22;;;;;;;19.67;9.07;;;5.20;99.90;;;;;;4924014;29;20122;-81
2022/04/30 04:11:48;;;;;;;17.77;8.15;;;5.20;99.90;;;;;;4952782;28;20046;-81
2022/04/30 04:19:42;;;;;;;16.00;7.57;;;5.30;99.90;;;;;;4975935;28;20055;-84
2022/04/30 04:22:08;;;;;;;16.48;8.40;;;5.30;99.90;;;;;;4942651;28;20037;-84
2022/04/30 04:27:18;;;;;;;17.27;9.30;;;5.30;99.90;;;;;;4959079;28;20047;-82
2022/04/30 04:29:45;;;;;;;16.65;8.90;;;5.30;99.90;;;;;;4958797;28;20074;-82
2022/04/30 04:32:10;;;;;;;18.77;9.02;;;5.30;99.90;;;;;;4943173;28;20410;-82
2022/04/30 04:34:36;;;;;;;19.23;9.80;;;5.30;99.90;;;;;;4976374;28;20091;-82
2022/04/30 04:37:01;;;;;;;16.90;8.73;;;5.30;99.90;;;;;;4959052;28;20133;-81
2022/04/30 04:39:27;;;;;;;18.38;8.93;;;5.30;99.90;;;;;;4958720;28;20045;-82
2022/04/30 04:41:53;;;;;;;16.45;9.68;;;5.30;99.90;;;;;;4959291;28;20486;-82
2022/04/30 04:44:21;;;;;;;19.25;9.00;;;5.30;99.90;;;;;;4976340;28;20039;-83
2022/04/30 04:46:46;;;;;;;17.35;9.20;;;5.30;99.90;;;;;;4958969;28;20122;-82
2022/04/30 04:49:12;;;;;;;22.65;10.32;;;5.20;99.90;;;;;;4957979;28;20142;-83
2022/04/30 04:51:38;;;;;;;18.02;8.82;;;5.30;99.90;;;;;;4975774;28;20051;-82
2022/04/30 04:54:04;;;;;;;20.23;9.50;;;5.30;99.90;;;;;;4958775;28;20082;-81
2022/04/30 04:56:30;;;;;;;17.80;8.98;;;5.40;99.90;;;;;;4958903;28;20090;-84
2022/04/30 04:58:56;;;;;;;17.65;8.98;;;5.40;99.90;;;;;;4958342;28;20051;-82
2022/04/30 05:01:22;;;;;;;14.02;7.63;;;5.50;99.90;;;;;;4958421;28;20046;-83
2022/04/30 05:03:48;;;;;;;13.60;8.65;;;5.50;99.90;;;;;;4976038;28;20502;-87
2022/04/30 05:06:14;;;;;;;12.88;7.32;;;5.60;99.90;;;;;;4959021;28;20046;-82
2022/04/30 05:08:40;;;;;;;14.88;7.95;;;5.60;99.90;;;;;;4958433;28;20081;-82
2022/04/30 05:11:05;;;;;;;20.42;7.90;;;5.60;99.90;;;;;;4958151;28;20047;-82
2022/04/30 05:13:31;;;;;;;13.57;8.13;;;5.60;99.90;;;;;;4958365;28;20423;-82
2022/04/30 05:15:57;;;;;;;18.02;8.70;;;5.60;99.90;;;;;;4958165;28;20053;-81
2022/04/30 05:18:22;;;;;;;13.85;7.72;;;5.70;99.90;;;;;;4942314;28;20035;-82
2022/04/30 05:20:48;;;;;;;13.02;7.88;;;5.70;99.90;;;;;;4958055;28;20049;-82
2022/04/30 05:23:13;;;;;;;16.90;9.13;;;5.80;99.90;;;;;;4975471;28;20042;-82
2022/04/30 05:25:40;;;;;;;15.02;8.73;;;5.80;99.90;;;;;;4957493;28;20183;-82
2022/04/30 05:28:10;;;;;;;18.20;8.48;;;5.90;99.90;;;;;;4958189;28;20078;-82
2022/04/30 05:30:36;;;;;;;14.73;8.68;;;6.00;99.90;;;;;;4957894;28;20042;-82
2022/04/30 05:33:01;;;;;;;17.67;9.52;;;6.00;99.90;;;;;;4957791;28;20057;-82
2022/04/30 05:35:28;;;;;;;16.80;9.27;;;6.10;99.90;;;;;;4975049;28;20050;-82
2022/04/30 05:37:54;;;;;;;17.77;9.32;;;6.10;99.90;;;;;;4941528;28;20125;-82
2022/04/30 05:40:19;;;;;;;14.00;8.00;;;6.20;99.90;;;;;;4957907;28;20055;-81
2022/04/30 05:42:45;;;;;;;19.52;8.48;;;6.30;99.90;;;;;;4957793;28;20035;-82
2022/04/30 05:45:11;;;;;;;16.75;7.88;;;6.30;99.90;;;;;;4942313;28;20051;-82
2022/04/30 05:47:37;;;;;;;12.88;7.28;;;6.30;99.90;;;;;;4975257;28;20074;-82
2022/04/30 05:50:05;;;;;;;14.15;8.30;;;6.30;99.90;;;;;;4957398;28;20085;-83
2022/04/30 05:52:33;;;;;;;16.27;8.25;;;6.30;99.90;;;;;;4957354;28;20062;-81
2022/04/30 05:55:02;;;;;;;14.95;8.70;;;6.40;99.90;;;;;;4957607;28;20078;-81
2022/04/30 05:57:29;;;;;;;16.08;8.98;;;6.50;99.90;;;;;;4958558;28;20078;-81
2022/04/30 05:59:55;;;;;;;16.05;8.95;;;6.60;99.90;;;;;;4958034;28;20047;-79
2022/04/30 06:02:21;;;;;;;17.75;9.05;;;6.60;99.90;;;;;;4957322;28;20051;-83
2022/04/30 06:04:46;;;;;;;17.30;9.32;;;6.70;99.90;;;;;;4957163;28;20054;-83
2022/04/30 06:07:12;;;;;;;18.98;9.90;;;6.80;99.90;;;;;;4957388;28;20406;-83
2022/04/30 06:09:38;;;;;;;13.75;8.45;;;6.90;99.90;;;;;;4957534;28;20051;-83
2022/04/30 06:12:05;;;;;;;19.80;9.68;;;6.90;99.90;;;;;;4956823;28;20130;-83
2022/04/30 06:14:30;;;;;;;17.20;9.82;;;7.00;99.90;;;;;;4975218;28;20122;-83
2022/04/30 06:16:57;;;;;;;17.08;9.20;;;7.10;99.90;;;;;;4956986;28;20479;-83
2022/04/30 06:19:23;;;;;;;18.67;9.65;;;7.10;99.90;;;;;;4957457;28;20042;-83
2022/04/30 06:21:49;;;;;;;17.90;9.52;;;7.20;99.90;;;;;;4975155;28;20490;-83
2022/04/30 06:24:15;;;;;;;16.92;9.73;;;7.20;99.90;;;;;;4956612;28;20043;-82
2022/04/30 06:26:41;;;;;;;20.42;10.02;;;7.30;99.90;;;;;;4956918;28;20126;-83
2022/04/30 06:29:07;;;;;;;18.98;10.10;;;7.30;99.90;;;;;;4974286;28;20123;-83
2022/04/30 06:31:33;;;;;;;19.10;10.05;;;7.30;99.90;;;;;;4957034;28;20046;-84
2022/04/30 06:33:58;;;;;;;16.23;9.52;;;7.40;99.90;;;;;;4956771;28;20093;-83
2022/04/30 06:36:24;;;;;;;19.80;9.98;;;7.40;99.90;;;;;;4974698;28;20399;-83
2022/04/30 06:38:50;;;;;;;17.98;9.00;;;7.40;99.90;;;;;;4959864;28;20062;-84
2022/04/30 06:41:15;;;;;;;14.00;8.60;;;7.40;99.90;;;;;;4960819;28;20079;-83
2022/04/30 06:43:41;;;;;;;16.13;9.27;;;7.50;99.90;;;;;;4960510;28;20042;-83
2022/04/30 06:46:07;;;;;;;19.52;9.75;;;7.50;99.90;;;;;;4960516;28;20047;-82
2022/04/30 06:48:33;;;;;;;17.65;9.35;;;7.60;99.90;;;;;;4959984;28;20105;-83
2022/04/30 06:50:59;;;;;;;18.08;9.73;;;7.60;99.90;;;;;;4960568;28;20178;-84
2022/04/30 06:58:55;;;;;;;16.23;9.70;;;7.80;99.90;;;;;;4940712;28;20047;-81
2022/04/30 07:03:49;;;;;;;17.38;9.52;;;8.00;99.90;;;;;;4940743;29;20047;-81
2022/04/30 07:06:16;;;;;;;15.88;9.02;;;8.10;99.90;;;;;;4940609;29;20121;-82
2022/04/30 07:08:41;;;;;;;14.13;8.73;;;8.10;99.90;;;;;;4940736;29;20047;-82
2022/04/30 07:11:07;;;;;;;18.73;9.80;;;8.20;99.90;;;;;;4940661;29;20407;-82
2022/04/30 07:13:33;;;;;;;15.05;8.93;;;8.30;99.90;;;;;;4940997;29;20058;-82
2022/04/30 07:15:59;;;;;;;17.20;9.13;;;8.30;99.90;;;;;;4924532;29;20043;-82
2022/04/30 07:18:25;;;;;;;14.63;9.05;;;8.40;99.90;;;;;;4940512;29;20051;-81
2022/04/30 07:20:52;;;;;;;14.00;9.13;;;8.40;99.90;;;;;;4940770;29;20043;-81
2022/04/30 07:23:18;;;;;;;17.17;9.77;;;8.40;99.90;;;;;;4924460;29;20136;-81
2022/04/30 07:25:44;;;;;;;17.40;9.45;;;8.50;99.90;;;;;;4940648;29;20533;-81
2022/04/30 07:28:09;;;;;;;18.70;10.18;;;8.50;99.90;;;;;;4940752;29;20041;-81
2022/04/30 07:30:35;;;;;;;13.10;8.80;;;8.50;99.90;;;;;;4938709;29;20107;-81
2022/04/30 07:33:00;;;;;;;14.98;8.85;;;8.60;99.90;;;;;;4924684;29;20464;-80
2022/04/30 07:35:26;;;;;;;16.27;9.02;;;8.60;99.90;;;;;;4940370;29;20043;-81
2022/04/30 07:37:51;;;;;;;13.50;9.00;;;8.70;99.90;;;;;;4940803;29;20043;-82
2022/04/30 07:40:17;;;;;;;14.75;8.50;;;8.80;99.90;;;;;;4940653;29;20043;-82
2022/04/30 07:42:43;;;;;;;15.10;8.70;;;8.80;99.90;;;;;;4957749;29;20167;-81
2022/04/30 07:45:10;;;;;;;20.50;9.73;;;8.90;99.90;;;;;;4959519;29;20479;-79
2022/04/30 07:47:35;;;;;;;19.33;8.60;;;9.00;99.90;;;;;;4943987;29;20051;-79
2022/04/30 07:50:02;;;;;;;13.13;8.23;;;9.10;99.90;;;;;;4942632;29;20043;-79
2022/04/30 07:52:28;;;;;;;14.05;8.50;;;9.20;99.90;;;;;;4941553;29;20553;-81
2022/04/30 07:54:54;;;;;;;12.05;7.75;;;9.30;99.90;;;;;;4939852;29;20126;-80
2022/04/30 07:57:20;;;;;;;16.13;8.48;;;9.40;99.90;;;;;;4940630;29;20455;-81
2022/04/30 07:59:46;;;;;;;13.02;8.32;;;9.60;99.90;;;;;;4940036;29;20047;-82
2022/04/30 08:02:12;;;;;;;12.30;7.65;;;9.70;99.90;;;;;;4940182;29;20122;-82
2022/04/30 08:04:38;;;;;;;12.27;7.50;;;9.90;99.90;;;;;;4956912;29;20123;-81
2022/04/30 08:07:04;;;;;;;13.85;7.70;;;10.10;99.90;;;;;;4939602;29;20050;-82
2022/04/30 08:09:30;;;;;;;13.75;8.07;;;10.30;99.90;;;;;;4939898;29;20047;-82
2022/04/30 08:11:55;;;;;;;12.02;7.15;;;10.40;99.90;;;;;;4939855;29;20101;-82
2022/04/30 08:14:21;;;;;;;14.93;7.30;;;10.60;99.90;;;;;;4939382;29;20043;-83
2022/04/30 08:16:46;;;;;;;15.40;6.57;;;10.90;99.90;;;;;;4939583;29;20046;-82
2022/04/30 08:19:13;;;;;;;10.27;6.38;;;11.30;99.90;;;;;;4923802;29;20484;-81
2022/04/30 08:21:39;;;;;;;11.60;6.57;;;11.60;99.90;;;;;;4923715;29;20046;-82
2022/04/30 08:24:06;;;;;;;11.15;6.22;;;11.80;99.90;;;;;;4923757;29;20043;-81
2022/04/30 08:26:31;;;;;;;11.15;5.97;;;11.80;99.90;;;;;;4956508;29;20035;-81
2022/04/30 08:28:58;;;;;;;10.88;6.53;;;11.90;99.90;;;;;;4939230;29;20042;-82
2022/04/30 08:31:24;;;;;;;12.93;7.47;;;11.90;99.90;;;;;;4956708;29;20046;-81
2022/04/30 08:33:49;;;;;;;12.60;7.47;;;11.90;99.90;;;;;;4938980;29;20407;-83
2022/04/30 08:36:15;;;;;;;10.18;6.15;;;11.90;99.90;;;;;;4923859;29;20039;-84
2022/04/30 08:38:41;;;;;;;9.15;6.78;;;11.80;99.90;;;;;;4940542;29;20535;-85
2022/04/30 08:41:10;;;;;;;13.43;7.68;;;11.50;99.90;;;;;;4938345;29;20043;-81
2022/04/30 08:43:40;;;;;;;14.73;6.82;;;11.40;99.90;;;;;;4938941;29;20046;-82
2022/04/30 08:46:06;;;;;;;13.18;6.90;;;11.30;99.90;;;;;;4938747;29;20047;-81
2022/04/30 08:48:32;;;;;;;11.55;6.95;;;11.20;99.90;;;;;;4938872;29;20043;-84
2022/04/30 08:50:58;;;;;;;11.50;6.97;;;11.20;99.90;;;;;;4923133;29;20043;-82
2022/04/30 08:53:24;;;;;;;12.85;6.90;;;11.10;99.90;;;;;;4938374;29;20078;-83
2022/04/30 08:55:49;;;;;;;12.43;7.07;;;11.10;99.90;;;;;;4937683;29;20050;-83
2022/04/30 08:58:16;;;;;;;16.08;7.82;;;11.10;99.90;;;;;;4922968;29;20051;-83
2022/04/30 09:00:44;;;;;;;11.45;7.70;;;11.00;99.90;;;;;;4922015;29;20038;-82
2022/04/30 09:03:17;;;;;;;9.40;6.93;;;11.00;99.90;;;;;;4938962;29;20035;-81
2022/04/30 09:05:44;;;;;;;20.35;7.53;;;11.00;99.90;;;;;;4937989;29;20045;-83
2022/04/30 09:08:10;;;;;;;11.90;7.32;;;11.00;99.90;;;;;;4955865;29;20391;-81
2022/04/30 09:10:37;;;;;;;11.80;6.20;;;11.00;99.90;;;;;;4938800;29;20054;-79
2022/04/30 09:13:07;;;;;;;13.18;6.95;;;11.00;99.90;;;;;;4956171;29;20043;-82
2022/04/30 09:15:34;;;;;;;11.95;6.93;;;11.00;99.90;;;;;;4955769;29;20126;-76
2022/04/30 09:18:01;;;;;;;11.07;6.82;;;11.00;99.90;;;;;;4954908;29;20555;-75
2022/04/30 09:20:27;;;;;;;13.05;6.85;;;11.10;99.90;;;;;;4938132;29;20074;-80
2022/04/30 09:22:53;;;;;;;13.13;6.95;;;11.10;99.90;;;;;;4938267;29;20050;-81
2022/04/30 09:25:19;;;;;;;9.93;6.57;;;11.10;99.90;;;;;;4937921;29;20411;-77
2022/04/30 09:27:49;;;;;;;11.75;6.43;;;11.10;99.90;;;;;;4955291;29;20051;-72
2022/04/30 09:30:17;;;;;;;13.35;6.53;;;11.10;99.90;;;;;;4937934;29;20047;-74
2022/04/30 09:32:42;;;;;;;13.10;5.68;;;11.10;99.90;;;;;;4922493;29;20039;-75
2022/04/30 09:38:05;;;;;;;11.48;5.45;;;11.20;99.90;;;;;;4952551;28;20134;-84
2022/04/30 09:40:31;;;;;;;12.00;6.07;;;11.10;99.90;;;;;;4958260;28;20053;-86
2022/04/30 09:42:58;;;;;;;10.02;5.95;;;11.20;99.90;;;;;;4957450;28;20046;-80
2022/04/30 09:45:26;;;;;;;9.18;5.50;;;11.10;99.90;;;;;;4974762;28;20043;-78
2022/04/30 09:47:53;;;;;;;8.48;5.43;;;11.10;99.90;;;;;;4975169;28;20093;-78
2022/04/30 09:55:53;;;;;;;9.82;6.28;;;10.90;99.90;;;;;;4957650;28;20126;-81
2022/04/30 09:58:27;;;;;;;13.95;6.85;;;10.90;99.90;;;;;;4957420;28;20050;-82
2022/04/30 10:00:57;;;;;;;13.95;7.18;;;10.90;99.90;;;;;;4940805;28;20046;-70
2022/04/30 10:03:30;;;;;;;15.25;6.80;;;10.90;99.90;;;;;;4956986;28;20047;-71
2022/04/30 10:06:04;;;;;;;7.68;5.35;;;10.90;99.90;;;;;;4957509;28;20054;-80
2022/04/30 10:08:35;;;;;;;12.25;6.47;;;10.90;99.90;;;;;;4975852;28;20046;-84
2022/04/30 10:11:14;;;;;;;10.18;5.32;;;10.90;99.90;;;;;;4957608;28;20042;-75
2022/04/30 10:13:58;;;;;;;10.07;5.50;;;10.90;99.90;;;;;;4962045;28;20063;-85
2022/04/30 10:16:26;;;;;;;9.50;4.40;;;11.00;99.90;;;;;;4961675;28;20054;-83
2022/04/30 10:19:11;;;;;;;8.75;4.93;;;11.00;99.90;;;;;;4961414;28;20046;-83
2022/04/30 10:21:38;;;;;;;10.70;5.25;;;11.10;99.90;;;;;;4979135;28;20030;-83
2022/04/30 10:24:06;;;;;;;11.35;5.38;;;11.10;99.90;;;;;;4961053;28;20273;-82
2022/04/30 10:26:32;;;;;;;9.43;4.72;;;11.10;99.90;;;;;;4978055;28;20043;-82
2022/04/30 10:29:17;;;;;;;9.02;4.90;;;11.00;99.90;;;;;;4960807;28;20047;-82
2022/04/30 10:31:44;;;;;;;12.48;5.90;;;10.90;99.90;;;;;;4977967;28;20107;-83
2022/04/30 10:34:10;;;;;;;12.30;6.27;;;11.00;99.90;;;;;;4960498;28;20053;-82
2022/04/30 10:36:38;;;;;;;11.73;5.90;;;11.00;99.90;;;;;;4959951;28;20557;-83
2022/04/30 10:39:06;;;;;;;9.07;5.65;;;11.10;99.90;;;;;;4961116;28;20043;-83
2022/04/30 10:41:45;;;;;;;10.10;6.18;;;11.10;99.90;;;;;;4961047;28;20347;-84
2022/04/30 10:44:13;;;;;;;10.73;5.28;;;11.20;99.90;;;;;;4944393;28;20043;-82
2022/04/30 10:46:44;;;;;;;10.05;6.28;;;11.20;99.90;;;;;;4960956;28;20125;-83
2022/04/30 10:49:11;;;;;;;12.43;6.25;;;11.20;99.90;;;;;;4960779;28;20043;-80
2022/04/30 10:51:41;;;;;;;11.25;6.22;;;11.20;99.90;;;;;;4977739;28;20078;-80
2022/04/30 10:54:13;;;;;;;11.32;6.22;;;11.20;99.90;;;;;;4960309;28;20113;-79
2022/04/30 10:56:39;;;;;;;11.73;6.28;;;11.20;99.90;;;;;;4960229;28;20043;-84
2022/04/30 10:59:05;;;;;;;8.23;5.63;;;11.30;99.90;;;;;;4960560;28;20502;-83
2022/04/30 11:01:31;;;;;;;9.15;5.50;;;11.30;99.90;;;;;;4944148;28;20042;-80
2022/04/30 11:03:57;;;;;;;12.93;5.55;;;11.40;99.90;;;;;;4960591;28;20042;-83
2022/04/30 11:06:24;;;;;;;11.40;5.78;;;11.60;99.90;;;;;;4960493;28;20082;-84
2022/04/30 11:09:01;;;;;;;12.02;6.15;;;11.70;99.90;;;;;;4977367;28;20039;-83
2022/04/30 11:11:28;;;;;;;10.55;6.00;;;11.70;99.90;;;;;;4977777;28;20042;-83
2022/04/30 11:14:06;;;;;;;9.85;6.47;;;11.70;99.90;;;;;;4965337;28;20049;-81
2022/04/30 11:16:42;;;;;;;9.68;4.65;;;11.80;99.90;;;;;;4940578;29;20071;-81
2022/04/30 11:19:23;;;;;;;9.75;4.85;;;11.90;99.90;;;;;;4924809;29;20035;-76
2022/04/30 11:21:55;;;;;;;8.10;4.35;;;12.00;99.90;;;;;;4957560;29;20122;-84
2022/04/30 11:24:25;;;;;;;8.45;4.93;;;12.00;99.90;;;;;;4940148;29;20059;-80
2022/04/30 11:27:03;;;;;;;9.90;4.72;;;12.00;99.90;;;;;;4940236;29;20126;-80
2022/04/30 11:29:29;;;;;;;6.93;4.80;;;12.10;99.90;;;;;;4924672;29;20043;-82
2022/04/30 11:31:56;;;;;;;10.77;5.72;;;12.10;99.90;;;;;;4957733;29;20039;-81
2022/04/30 11:34:22;;;;;;;11.38;5.78;;;12.10;99.90;;;;;;4940933;29;20117;-81
2022/04/30 11:36:56;;;;;;;11.13;5.70;;;12.10;99.90;;;;;;4940494;29;20043;-81
2022/04/30 11:39:23;;;;;;;12.05;6.20;;;12.20;99.90;;;;;;4940663;29;20102;-80
2022/04/30 11:41:52;;;;;;;9.73;5.57;;;12.20;99.90;;;;;;4940189;29;20400;-80
2022/04/30 11:44:22;;;;;;;9.88;4.60;;;12.30;99.90;;;;;;4940923;29;20043;-83
2022/04/30 11:46:51;;;;;;;8.32;4.28;;;12.40;99.90;;;;;;4940266;29;20043;-80
2022/04/30 11:49:19;;;;;;;8.80;4.35;;;12.50;99.90;;;;;;4939909;29;20043;-82
2022/04/30 11:51:46;;;;;;;9.88;5.32;;;12.60;99.90;;;;;;4939920;29;20054;-81
2022/04/30 11:54:15;;;;;;;6.75;4.65;;;12.70;99.90;;;;;;4939839;29;20436;-82
2022/04/30 11:56:43;;;;;;;7.70;4.38;;;12.80;99.90;;;;;;4940158;29;20050;-81
2022/04/30 11:59:09;;;;;;;11.60;4.65;;;12.90;99.90;;;;;;4940399;29;20117;-81
2022/04/30 12:01:42;;;;;;;8.38;4.25;;;12.80;99.90;;;;;;4924329;29;20043;-83
2022/04/30 12:04:11;;;;;;;7.05;4.15;;;12.80;99.90;;;;;;4924407;29;20391;-83
2022/04/30 12:06:39;;;;;;;7.97;4.03;;;12.90;99.90;;;;;;4957142;29;20391;-82
2022/04/30 12:09:19;;;;;;;6.53;4.22;;;12.90;99.90;;;;;;4939934;29;20415;-83
2022/04/30 12:11:53;;;;;;;16.75;4.70;;;12.80;99.90;;;;;;4939483;29;20567;-83
2022/04/30 12:14:19;;;;;;;10.65;4.57;;;12.80;99.90;;;;;;4939745;29;20046;-83
2022/04/30 12:16:47;;;;;;;11.57;5.20;;;12.90;99.90;;;;;;4923805;29;20428;-81
2022/04/30 12:24:58;;;;;;;9.40;5.45;;;13.00;99.90;;;;;;4939771;29;20393;-80
2022/04/30 12:27:23;;;;;;;9.38;5.18;;;12.90;99.90;;;;;;4946379;29;20392;-79
2022/04/30 12:30:21;;;;;;;11.15;4.85;;;12.80;99.90;;;;;;4949236;29;20039;-80
2022/04/30 12:32:47;;;;;;;11.65;5.50;;;12.80;99.90;;;;;;4938820;29;20055;-77
2022/04/30 12:35:14;;;;;;;8.15;4.85;;;12.80;99.90;;;;;;4926286;29;20131;-81
2022/04/30 12:37:40;;;;;;;11.30;5.43;;;12.70;99.90;;;;;;4940265;29;20047;-82
2022/04/30 12:40:07;;;;;;;8.23;5.28;;;12.70;99.90;;;;;;4939500;29;20085;-82
2022/04/30 12:42:32;;;;;;;9.90;5.30;;;12.80;99.90;;;;;;4923292;29;20045;-82
2022/04/30 12:44:58;;;;;;;8.38;5.07;;;12.70;99.90;;;;;;4922892;29;20043;-84
2022/04/30 12:47:23;;;;;;;9.23;5.50;;;12.70;99.90;;;;;;4939404;29;20058;-82
2022/04/30 12:49:49;;;;;;;9.48;5.43;;;12.50;99.90;;;;;;4938941;29;20051;-72
2022/04/30 12:52:18;;;;;;;10.85;5.65;;;12.50;99.90;;;;;;4939936;29;20049;-85
2022/04/30 12:54:43;;;;;;;13.13;5.57;;;12.40;99.90;;;;;;4922824;29;20496;-87
2022/04/30 12:57:13;;;;;;;9.30;5.65;;;12.40;99.90;;;;;;4938941;29;20049;-88
2022/04/30 12:59:38;;;;;;;12.57;6.13;;;12.40;99.90;;;;;;4956214;29;20050;-81
2022/04/30 13:02:07;;;;;;;10.10;5.47;;;12.30;99.90;;;;;;4956006;29;20047;-82
2022/04/30 13:04:33;;;;;;;10.70;5.45;;;12.30;99.90;;;;;;4939023;29;20047;-82
2022/04/30 13:06:59;;;;;;;9.35;5.60;;;12.40;99.90;;;;;;4938551;29;20397;-81
2022/04/30 13:14:53;;;;;;;7.95;4.85;;;12.40;99.90;;;;;;4938404;29;20389;-83
2022/04/30 13:17:18;;;;;;;8.30;5.10;;;12.40;99.90;;;;;;4938320;29;20122;-81
2022/04/30 13:19:44;;;;;;;9.30;4.78;;;12.30;99.90;;;;;;4955617;29;20373;-81
2022/04/30 13:22:10;;;;;;;9.23;4.97;;;12.40;99.90;;;;;;4938348;29;20043;-83
2022/04/30 13:24:35;;;;;;;8.80;4.97;;;12.50;99.90;;;;;;4938954;29;20061;-83
2022/04/30 13:27:01;;;;;;;8.73;4.85;;;12.60;99.90;;;;;;4938103;29;20535;-84
2022/04/30 13:29:27;;;;;;;11.95;5.00;;;12.50;99.90;;;;;;4938288;29;20050;-80
2022/04/30 13:31:52;;;;;;;10.73;5.50;;;12.60;99.90;;;;;;4938157;29;20039;-82
2022/04/30 13:34:21;;;;;;;10.20;4.80;;;12.70;99.90;;;;;;4938374;29;20058;-83
2022/04/30 13:36:47;;;;;;;7.03;4.38;;;12.70;99.90;;;;;;4938777;29;20050;-82
2022/04/30 13:39:12;;;;;;;12.80;5.00;;;12.80;99.90;;;;;;4938214;29;20475;-84
2022/04/30 13:41:38;;;;;;;7.93;4.65;;;12.90;99.90;;;;;;4938822;29;20194;-81
2022/04/30 13:44:04;;;;;;;7.45;4.45;;;13.00;99.90;;;;;;4938550;29;20039;-84
2022/04/30 13:46:29;;;;;;;9.35;4.38;;;13.00;99.90;;;;;;4938424;29;20381;-83
2022/04/30 13:48:56;;;;;;;7.18;4.47;;;13.10;99.90;;;;;;4938768;29;20488;-84
2022/04/30 13:51:22;;;;;;;7.03;4.40;;;13.20;99.90;;;;;;4938343;29;20055;-83
2022/04/30 13:53:47;;;;;;;6.00;4.18;;;13.20;99.90;;;;;;4922463;29;20047;-84
2022/04/30 13:56:14;;;;;;;8.18;4.30;;;13.10;99.90;;;;;;4938259;29;20043;-83
2022/04/30 13:58:39;;;;;;;6.35;3.88;;;13.20;99.90;;;;;;4938578;29;20510;-82
2022/04/30 14:01:05;;;;;;;11.57;4.80;;;13.20;99.90;;;;;;4938726;29;20047;-82
2022/04/30 14:03:31;;;;;;;9.15;4.25;;;13.30;99.90;;;;;;4922611;29;20499;-82
2022/04/30 14:05:59;;;;;;;6.57;3.90;;;13.40;99.90;;;;;;4938201;29;20039;-83
2022/04/30 14:08:25;;;;;;;6.78;4.07;;;13.50;99.90;;;;;;4938540;29;20126;-83
2022/04/30 14:10:50;;;;;;;9.25;4.22;;;13.50;99.90;;;;;;4938371;29;20131;-83
2022/04/30 14:16:00;;;;;;;7.68;4.30;;;13.50;99.90;;;;;;4938291;29;20051;-82
2022/04/30 14:18:26;;;;;;;8.05;4.00;;;13.50;99.90;;;;;;4938534;29;20451;-80
2022/04/30 14:20:53;;;;;;;7.07;4.35;;;13.50;99.90;;;;;;4955358;29;20119;-81
2022/04/30 14:23:19;;;;;;;7.18;4.32;;;13.50;99.90;;;;;;4937898;29;20058;-80
2022/04/30 14:25:45;;;;;;;7.38;4.03;;;13.40;99.90;;;;;;4938300;29;20051;-82
2022/04/30 14:28:11;;;;;;;8.63;4.10;;;13.40;99.90;;;;;;4922459;29;20054;-83
2022/04/30 14:30:44;;;;;;;7.43;4.38;;;13.40;99.90;;;;;;4922151;29;20047;-83
2022/04/30 14:33:11;;;;;;;17.23;5.15;;;13.50;99.90;;;;;;4938729;29;20423;-81
2022/04/30 14:35:38;;;;;;;12.45;5.00;;;13.50;99.90;;;;;;4938161;29;20417;-83
2022/04/30 14:38:08;;;;;;;10.38;5.80;;;13.50;99.90;;;;;;4955585;29;20047;-83
2022/04/30 14:40:35;;;;;;;9.75;5.30;;;13.50;99.90;;;;;;4938864;29;20069;-83
2022/04/30 14:43:00;;;;;;;11.30;5.43;;;13.50;99.90;;;;;;4938112;29;20047;-81
2022/04/30 14:45:26;;;;;;;10.57;5.63;;;13.50;99.90;;;;;;4937993;29;20461;-85
2022/04/30 14:47:52;;;;;;;11.88;5.22;;;13.40;99.90;;;;;;4938124;29;20051;-82
2022/04/30 14:50:17;;;;;;;11.63;6.72;;;13.40;99.90;;;;;;4923001;29;20035;-83
2022/04/30 14:52:48;;;;;;;12.93;5.55;;;13.40;99.90;;;;;;4923423;29;20054;-86
2022/04/30 14:55:13;;;;;;;9.82;5.78;;;13.30;99.90;;;;;;4938413;29;20047;-81
2022/04/30 14:57:39;;;;;;;10.02;5.47;;;13.20;99.90;;;;;;4955774;28;20035;-81
2022/04/30 15:00:06;;;;;;;15.30;5.00;;;13.20;99.90;;;;;;4941164;29;20086;-80
2022/04/30 15:02:32;;;;;;;11.60;5.93;;;13.10;99.90;;;;;;4941088;29;20043;-83
2022/04/30 15:04:57;;;;;;;11.57;5.20;;;13.10;99.90;;;;;;4941462;29;20179;-82
2022/04/30 15:07:23;;;;;;;8.07;5.28;;;13.10;99.90;;;;;;4941481;29;20073;-83
2022/04/30 15:09:49;;;;;;;9.38;5.50;;;13.00;99.90;;;;;;4958439;29;20047;-80
2022/04/30 15:12:15;;;;;;;10.88;5.53;;;13.00;99.90;;;;;;4941137;29;20071;-80
2022/04/30 15:14:41;;;;;;;11.25;6.00;;;12.90;99.90;;;;;;4940908;29;20051;-83
2022/04/30 15:17:10;;;;;;;10.40;5.85;;;13.00;99.90;;;;;;4941503;29;20074;-86
2022/04/30 15:19:36;;;;;;;12.65;5.60;;;12.90;99.90;;;;;;4940993;29;20047;-82
2022/04/30 15:22:02;;;;;;;15.25;6.00;;;13.00;99.90;;;;;;4940777;29;20050;-82
2022/04/30 15:24:28;;;;;;;12.15;6.18;;;12.90;99.90;;;;;;4940768;29;20070;-81
2022/04/30 15:26:53;;;;;;;13.45;6.43;;;12.90;99.90;;;;;;4940571;29;20050;-84
2022/04/30 15:29:19;;;;;;;11.80;5.95;;;12.90;99.90;;;;;;4941040;29;20047;-84
2022/04/30 15:31:44;;;;;;;10.52;5.97;;;12.90;99.90;;;;;;4940937;29;20122;-83
2022/04/30 15:34:10;;;;;;;9.90;5.32;;;12.90;99.90;;;;;;4940700;29;20094;-84
2022/04/30 15:36:41;;;;;;;10.05;6.03;;;12.90;99.90;;;;;;4940293;29;20071;-84
2022/04/30 15:39:08;;;;;;;11.82;5.90;;;12.90;99.90;;;;;;4957432;29;20094;-86
2022/04/30 15:41:35;;;;;;;9.77;5.53;;;12.90;99.90;;;;;;4940284;29;20039;-81
2022/04/30 15:44:01;;;;;;;11.13;5.75;;;13.00;99.90;;;;;;4940180;29;20054;-82
2022/04/30 15:51:55;;;;;;;12.55;6.03;;;13.00;99.90;;;;;;4940139;29;20388;-82
2022/04/30 15:54:21;;;;;;;10.13;6.05;;;13.00;99.90;;;;;;4940323;29;20122;-84
2022/04/30 15:56:47;;;;;;;11.25;6.22;;;12.90;99.90;;;;;;4940425;29;20135;-83
2022/04/30 15:59:13;;;;;;;13.65;6.35;;;12.90;99.90;;;;;;4939810;29;20071;-80
2022/04/30 16:01:39;;;;;;;11.65;6.28;;;13.00;99.90;;;;;;4940063;29;20059;-82
2022/04/30 16:04:05;;;;;;;10.52;5.70;;;12.90;99.90;;;;;;4924497;29;20411;-82
2022/04/30 16:06:31;;;;;;;14.40;6.95;;;12.90;99.90;;;;;;4957052;29;20039;-83
2022/04/30 16:08:57;;;;;;;10.15;6.18;;;12.90;99.90;;;;;;4957051;28;20063;-83
2022/04/30 16:11:24;;;;;;;12.43;6.07;;;12.90;99.90;;;;;;4939525;29;20134;-83
2022/04/30 16:13:50;;;;;;;9.88;5.80;;;12.80;99.90;;;;;;4939315;29;20487;-83
2022/04/30 16:16:16;;;;;;;9.35;5.93;;;12.80;99.90;;;;;;4940116;29;20070;-82
2022/04/30 16:18:41;;;;;;;13.02;6.40;;;12.80;99.90;;;;;;4939574;29;20511;-81
2022/04/30 16:21:07;;;;;;;8.52;5.22;;;12.70;99.90;;;;;;4939912;29;20039;-84
2022/04/30 16:23:33;;;;;;;8.15;5.93;;;12.70;99.90;;;;;;4939593;29;20420;-83
2022/04/30 16:25:59;;;;;;;10.95;6.97;;;12.70;99.90;;;;;;4939752;29;20047;-84
2022/04/30 16:28:26;;;;;;;10.82;5.95;;;12.70;99.90;;;;;;4939808;29;20515;-83
2022/04/30 16:30:51;;;;;;;10.57;6.20;;;12.70;99.90;;;;;;4939461;29;20043;-84
2022/04/30 16:33:17;;;;;;;10.55;6.53;;;12.60;99.90;;;;;;4939431;29;20102;-81
2022/04/30 16:35:44;;;;;;;10.45;6.65;;;12.60;99.90;;;;;;4923322;29;20110;-81
2022/04/30 16:38:09;;;;;;;11.88;7.00;;;12.60;99.90;;;;;;4939454;29;20122;-83
2022/04/30 16:40:39;;;;;;;11.13;6.43;;;12.60;99.90;;;;;;4956801;29;20070;-84
2022/04/30 16:43:05;;;;;;;11.38;6.13;;;12.50;99.90;;;;;;4939292;29;20098;-83
2022/04/30 16:45:31;;;;;;;14.52;6.43;;;12.50;99.90;;;;;;4940015;29;20396;-81
2022/04/30 16:47:57;;;;;;;11.00;6.45;;;12.50;99.90;;;;;;4923618;29;20054;-83
2022/04/30 16:50:23;;;;;;;12.10;6.85;;;12.50;99.90;;;;;;4939601;29;20051;-83
2022/04/30 16:52:49;;;;;;;10.18;6.43;;;12.50;99.90;;;;;;4940084;29;20043;-84
2022/04/30 16:58:00;;;;;;;15.15;6.40;;;12.50;99.90;;;;;;4939443;29;20047;-83
2022/04/30 17:00:29;;;;;;;11.13;5.57;;;12.50;99.90;;;;;;4956606;29;20155;-85
2022/04/30 17:02:55;;;;;;;10.30;5.85;;;12.40;99.90;;;;;;4955797;29;20046;-83
2022/04/30 17:05:21;;;;;;;11.55;5.53;;;12.40;99.90;;;;;;4922565;29;20043;-84
2022/04/30 17:07:53;;;;;;;12.77;6.20;;;12.40;99.90;;;;;;4922891;29;20611;-84
2022/04/30 17:10:20;;;;;;;9.60;6.45;;;12.40;99.90;;;;;;4938572;29;20094;-84
2022/04/30 17:12:49;;;;;;;10.95;6.35;;;12.30;99.90;;;;;;4956014;29;20082;-83
2022/04/30 17:15:15;;;;;;;13.75;6.18;;;12.30;99.90;;;;;;4923315;29;20053;-82
2022/04/30 17:17:45;;;;;;;14.38;6.22;;;12.20;99.90;;;;;;4940713;29;20043;-83
2022/04/30 17:20:16;;;;;;;9.20;5.63;;;12.20;99.90;;;;;;4941464;29;20105;-82
2022/04/30 17:22:47;;;;;;;12.25;6.63;;;12.20;99.90;;;;;;4938995;29;20484;-82
2022/04/30 17:25:14;;;;;;;9.95;6.00;;;12.10;99.90;;;;;;4938994;29;20423;-82
2022/04/30 17:27:41;;;;;;;11.95;6.68;;;12.10;99.90;;;;;;4939274;29;20138;-83
2022/04/30 17:30:08;;;;;;;10.88;6.78;;;12.00;99.90;;;;;;4925975;29;20047;-84